Terminal Aerodrome Forecast
Issued by NWS Sterling, VA

Current Version | Previous Version | Text Only | Print | Product List | Glossary Off
Versions: 1 2 3 4 5 6 7 8 9 10 11 12 13 14 15

000
FTUS41 KLWX 240500
TAFMRB
TAF
KMRB 240538Z 2406/2506 33009KT P6SM BKN045 OVC060
     FM240700 32008KT 6SM -SHRA FEW030 OVC050
     FM241000 31005KT 6SM BR SCT010 BKN100
     FM241300 VRB03KT P6SM BKN060 BKN100
     FM242300 01007KT P6SM SCT040=

USA.gov is the U.S. government's official web portal to all federal, state and local government web resources and services.